sensor_id;sensor_type;location;lat;lon;timestamp;P1;durP1;ratioP1;P2;durP2;ratioP2
21138;SDS011;10727;43.600;1.444;2023-08-24T00:01:33;7.47;;;3.60;;
21138;SDS011;10727;43.600;1.444;2023-08-24T00:04:38;5.25;;;3.97;;
21138;SDS011;10727;43.600;1.444;2023-08-24T00:07:45;5.03;;;4.03;;
21138;SDS011;10727;43.600;1.444;2023-08-24T00:10:51;8.43;;;4.10;;
21138;SDS011;10727;43.600;1.444;2023-08-24T00:13:56;6.47;;;3.95;;
21138;SDS011;10727;43.600;1.444;2023-08-24T00:17:01;10.88;;;4.72;;
21138;SDS011;10727;43.600;1.444;2023-08-24T00:20:06;5.30;;;4.20;;
21138;SDS011;10727;43.600;1.444;2023-08-24T00:23:15;12.10;;;5.03;;
21138;SDS011;10727;43.600;1.444;2023-08-24T00:26:20;5.43;;;4.18;;
21138;SDS011;10727;43.600;1.444;2023-08-24T00:29:26;10.70;;;4.60;;
21138;SDS011;10727;43.600;1.444;2023-08-24T00:32:31;7.93;;;4.25;;
21138;SDS011;10727;43.600;1.444;2023-08-24T00:35:37;11.55;;;4.70;;
21138;SDS011;10727;43.600;1.444;2023-08-24T00:38:44;8.43;;;4.38;;
21138;SDS011;10727;43.600;1.444;2023-08-24T00:41:54;12.48;;;4.53;;
21138;SDS011;10727;43.600;1.444;2023-08-24T00:44:59;8.30;;;4.55;;
21138;SDS011;10727;43.600;1.444;2023-08-24T00:48:04;8.55;;;4.55;;
21138;SDS011;10727;43.600;1.444;2023-08-24T00:51:09;7.40;;;4.68;;
21138;SDS011;10727;43.600;1.444;2023-08-24T00:54:17;5.90;;;4.70;;
21138;SDS011;10727;43.600;1.444;2023-08-24T00:57:22;13.23;;;4.97;;
21138;SDS011;10727;43.600;1.444;2023-08-24T01:00:27;12.02;;;4.80;;
21138;SDS011;10727;43.600;1.444;2023-08-24T01:03:32;13.60;;;5.43;;
21138;SDS011;10727;43.600;1.444;2023-08-24T01:06:37;8.60;;;5.10;;
21138;SDS011;10727;43.600;1.444;2023-08-24T01:09:43;13.55;;;5.00;;
21138;SDS011;10727;43.600;1.444;2023-08-24T01:12:50;8.52;;;4.82;;
21138;SDS011;10727;43.600;1.444;2023-08-24T01:15:59;8.00;;;4.88;;
21138;SDS011;10727;43.600;1.444;2023-08-24T01:19:06;6.93;;;4.85;;
21138;SDS011;10727;43.600;1.444;2023-08-24T01:22:17;7.30;;;4.80;;
21138;SDS011;10727;43.600;1.444;2023-08-24T01:25:29;10.32;;;5.00;;
21138;SDS011;10727;43.600;1.444;2023-08-24T01:28:38;9.52;;;4.82;;
21138;SDS011;10727;43.600;1.444;2023-08-24T01:31:43;10.35;;;4.88;;
21138;SDS011;10727;43.600;1.444;2023-08-24T01:34:48;6.40;;;4.88;;
21138;SDS011;10727;43.600;1.444;2023-08-24T01:37:53;11.07;;;4.50;;
21138;SDS011;10727;43.600;1.444;2023-08-24T01:40:59;7.53;;;4.43;;
21138;SDS011;10727;43.600;1.444;2023-08-24T01:44:12;9.20;;;5.28;;
21138;SDS011;10727;43.600;1.444;2023-08-24T01:47:18;10.25;;;5.05;;
21138;SDS011;10727;43.600;1.444;2023-08-24T01:50:24;11.10;;;5.20;;
21138;SDS011;10727;43.600;1.444;2023-08-24T01:53:30;7.40;;;5.20;;
21138;SDS011;10727;43.600;1.444;2023-08-24T01:56:35;7.70;;;4.80;;
21138;SDS011;10727;43.600;1.444;2023-08-24T01:59:41;8.93;;;5.32;;
21138;SDS011;10727;43.600;1.444;2023-08-24T02:02:46;9.25;;;5.10;;
21138;SDS011;10727;43.600;1.444;2023-08-24T02:05:51;8.63;;;5.00;;
21138;SDS011;10727;43.600;1.444;2023-08-24T02:08:56;11.02;;;5.28;;
21138;SDS011;10727;43.600;1.444;2023-08-24T02:12:02;12.88;;;5.05;;
21138;SDS011;10727;43.600;1.444;2023-08-24T02:15:10;9.20;;;5.20;;
21138;SDS011;10727;43.600;1.444;2023-08-24T02:18:15;12.65;;;5.30;;
21138;SDS011;10727;43.600;1.444;2023-08-24T02:21:20;7.93;;;5.28;;
21138;SDS011;10727;43.600;1.444;2023-08-24T02:24:25;8.07;;;5.00;;
21138;SDS011;10727;43.600;1.444;2023-08-24T02:27:30;8.75;;;5.43;;
21138;SDS011;10727;43.600;1.444;2023-08-24T02:30:38;7.85;;;5.07;;
21138;SDS011;10727;43.600;1.444;2023-08-24T02:33:43;10.10;;;5.38;;
21138;SDS011;10727;43.600;1.444;2023-08-24T02:36:48;9.77;;;5.15;;
21138;SDS011;10727;43.600;1.444;2023-08-24T02:39:55;10.68;;;4.97;;
21138;SDS011;10727;43.600;1.444;2023-08-24T02:43:00;8.23;;;5.05;;
21138;SDS011;10727;43.600;1.444;2023-08-24T02:46:07;8.10;;;5.03;;
21138;SDS011;10727;43.600;1.444;2023-08-24T02:49:13;8.82;;;4.93;;
21138;SDS011;10727;43.600;1.444;2023-08-24T02:52:20;10.95;;;4.97;;
21138;SDS011;10727;43.600;1.444;2023-08-24T02:55:26;7.93;;;4.93;;
21138;SDS011;10727;43.600;1.444;2023-08-24T02:58:32;7.82;;;5.00;;
21138;SDS011;10727;43.600;1.444;2023-08-24T03:01:38;7.65;;;4.75;;
21138;SDS011;10727;43.600;1.444;2023-08-24T03:04:44;11.40;;;4.80;;
21138;SDS011;10727;43.600;1.444;2023-08-24T03:07:49;9.55;;;5.38;;
21138;SDS011;10727;43.600;1.444;2023-08-24T03:10:54;10.88;;;5.20;;
21138;SDS011;10727;43.600;1.444;2023-08-24T03:13:59;9.95;;;5.30;;
21138;SDS011;10727;43.600;1.444;2023-08-24T03:17:06;8.73;;;5.00;;
21138;SDS011;10727;43.600;1.444;2023-08-24T03:20:12;10.90;;;5.15;;
21138;SDS011;10727;43.600;1.444;2023-08-24T03:23:17;10.15;;;4.47;;
21138;SDS011;10727;43.600;1.444;2023-08-24T03:26:22;8.55;;;5.05;;
21138;SDS011;10727;43.600;1.444;2023-08-24T03:29:30;8.25;;;5.20;;
21138;SDS011;10727;43.600;1.444;2023-08-24T03:32:38;10.15;;;5.47;;
21138;SDS011;10727;43.600;1.444;2023-08-24T03:35:44;9.95;;;5.25;;
21138;SDS011;10727;43.600;1.444;2023-08-24T03:38:49;9.05;;;4.85;;
21138;SDS011;10727;43.600;1.444;2023-08-24T03:41:54;8.57;;;4.72;;
21138;SDS011;10727;43.600;1.444;2023-08-24T03:44:59;9.38;;;4.85;;
21138;SDS011;10727;43.600;1.444;2023-08-24T03:48:06;12.38;;;5.18;;
21138;SDS011;10727;43.600;1.444;2023-08-24T03:51:11;9.48;;;5.00;;
21138;SDS011;10727;43.600;1.444;2023-08-24T03:54:17;9.63;;;5.05;;
21138;SDS011;10727;43.600;1.444;2023-08-24T03:57:22;9.15;;;5.07;;
21138;SDS011;10727;43.600;1.444;2023-08-24T04:00:27;10.40;;;5.03;;
21138;SDS011;10727;43.600;1.444;2023-08-24T04:03:35;9.70;;;5.30;;
21138;SDS011;10727;43.600;1.444;2023-08-24T04:06:40;9.02;;;5.30;;
21138;SDS011;10727;43.600;1.444;2023-08-24T04:09:45;7.85;;;4.93;;
21138;SDS011;10727;43.600;1.444;2023-08-24T04:12:50;13.63;;;5.22;;
21138;SDS011;10727;43.600;1.444;2023-08-24T04:15:56;7.13;;;4.63;;
21138;SDS011;10727;43.600;1.444;2023-08-24T04:19:03;10.00;;;5.30;;
21138;SDS011;10727;43.600;1.444;2023-08-24T04:22:08;9.73;;;4.95;;
21138;SDS011;10727;43.600;1.444;2023-08-24T04:25:13;12.82;;;5.43;;
21138;SDS011;10727;43.600;1.444;2023-08-24T04:28:18;11.45;;;5.30;;
21138;SDS011;10727;43.600;1.444;2023-08-24T04:31:22;12.40;;;5.32;;
21138;SDS011;10727;43.600;1.444;2023-08-24T04:34:29;9.23;;;4.47;;
21138;SDS011;10727;43.600;1.444;2023-08-24T04:37:34;7.63;;;5.22;;
21138;SDS011;10727;43.600;1.444;2023-08-24T04:40:48;10.27;;;5.40;;
21138;SDS011;10727;43.600;1.444;2023-08-24T04:43:53;9.38;;;5.10;;
21138;SDS011;10727;43.600;1.444;2023-08-24T04:46:59;9.65;;;5.07;;
21138;SDS011;10727;43.600;1.444;2023-08-24T04:53:13;11.50;;;5.70;;
21138;SDS011;10727;43.600;1.444;2023-08-24T04:56:19;10.32;;;6.55;;
21138;SDS011;10727;43.600;1.444;2023-08-24T04:59:24;10.13;;;6.07;;
21138;SDS011;10727;43.600;1.444;2023-08-24T05:02:29;8.70;;;5.40;;
21138;SDS011;10727;43.600;1.444;2023-08-24T05:05:35;13.65;;;5.78;;
21138;SDS011;10727;43.600;1.444;2023-08-24T05:08:42;10.52;;;4.95;;
21138;SDS011;10727;43.600;1.444;2023-08-24T05:11:47;10.05;;;5.35;;
21138;SDS011;10727;43.600;1.444;2023-08-24T05:14:53;12.75;;;5.72;;
21138;SDS011;10727;43.600;1.444;2023-08-24T05:17:58;11.68;;;5.38;;
21138;SDS011;10727;43.600;1.444;2023-08-24T05:21:03;8.68;;;5.60;;
21138;SDS011;10727;43.600;1.444;2023-08-24T05:24:10;8.80;;;5.43;;
21138;SDS011;10727;43.600;1.444;2023-08-24T05:27:15;13.40;;;5.80;;
21138;SDS011;10727;43.600;1.444;2023-08-24T05:30:21;10.25;;;5.85;;
21138;SDS011;10727;43.600;1.444;2023-08-24T05:33:27;9.65;;;5.43;;
21138;SDS011;10727;43.600;1.444;2023-08-24T05:36:34;7.80;;;5.53;;
21138;SDS011;10727;43.600;1.444;2023-08-24T05:39:40;15.30;;;6.05;;
21138;SDS011;10727;43.600;1.444;2023-08-24T05:42:45;9.13;;;5.45;;
21138;SDS011;10727;43.600;1.444;2023-08-24T05:45:51;9.68;;;5.60;;
21138;SDS011;10727;43.600;1.444;2023-08-24T05:48:57;14.27;;;6.57;;
21138;SDS011;10727;43.600;1.444;2023-08-24T05:52:03;9.43;;;5.70;;
21138;SDS011;10727;43.600;1.444;2023-08-24T05:55:09;11.13;;;5.10;;
21138;SDS011;10727;43.600;1.444;2023-08-24T05:58:15;12.40;;;5.60;;
21138;SDS011;10727;43.600;1.444;2023-08-24T06:01:20;9.52;;;5.38;;
21138;SDS011;10727;43.600;1.444;2023-08-24T06:04:25;9.20;;;6.40;;
21138;SDS011;10727;43.600;1.444;2023-08-24T06:07:30;15.90;;;7.40;;
21138;SDS011;10727;43.600;1.444;2023-08-24T06:10:36;10.80;;;7.22;;
21138;SDS011;10727;43.600;1.444;2023-08-24T06:13:41;11.82;;;6.85;;
21138;SDS011;10727;43.600;1.444;2023-08-24T06:16:46;9.07;;;6.78;;
21138;SDS011;10727;43.600;1.444;2023-08-24T06:19:51;14.80;;;6.78;;
21138;SDS011;10727;43.600;1.444;2023-08-24T06:22:56;12.93;;;6.05;;
21138;SDS011;10727;43.600;1.444;2023-08-24T06:26:03;10.98;;;5.65;;
21138;SDS011;10727;43.600;1.444;2023-08-24T06:29:08;10.98;;;5.85;;
21138;SDS011;10727;43.600;1.444;2023-08-24T06:32:13;11.93;;;5.55;;
21138;SDS011;10727;43.600;1.444;2023-08-24T06:35:19;10.18;;;5.80;;
21138;SDS011;10727;43.600;1.444;2023-08-24T06:38:24;11.15;;;5.43;;
21138;SDS011;10727;43.600;1.444;2023-08-24T06:41:33;9.55;;;5.55;;
21138;SDS011;10727;43.600;1.444;2023-08-24T06:44:43;10.60;;;5.53;;
21138;SDS011;10727;43.600;1.444;2023-08-24T06:47:48;13.52;;;5.20;;
21138;SDS011;10727;43.600;1.444;2023-08-24T06:50:54;9.10;;;5.25;;
21138;SDS011;10727;43.600;1.444;2023-08-24T06:54:00;18.23;;;5.38;;
21138;SDS011;10727;43.600;1.444;2023-08-24T06:57:06;12.00;;;5.47;;
21138;SDS011;10727;43.600;1.444;2023-08-24T07:00:12;9.38;;;5.50;;
21138;SDS011;10727;43.600;1.444;2023-08-24T07:03:18;13.63;;;9.00;;
21138;SDS011;10727;43.600;1.444;2023-08-24T07:06:23;15.48;;;7.00;;
21138;SDS011;10727;43.600;1.444;2023-08-24T07:09:28;10.95;;;5.95;;
21138;SDS011;10727;43.600;1.444;2023-08-24T07:12:35;12.70;;;5.82;;
21138;SDS011;10727;43.600;1.444;2023-08-24T07:15:41;12.20;;;5.80;;
21138;SDS011;10727;43.600;1.444;2023-08-24T07:18:48;7.22;;;5.43;;
21138;SDS011;10727;43.600;1.444;2023-08-24T07:21:53;12.90;;;5.47;;
21138;SDS011;10727;43.600;1.444;2023-08-24T07:24:59;8.48;;;4.90;;
21138;SDS011;10727;43.600;1.444;2023-08-24T07:28:09;12.70;;;5.78;;
21138;SDS011;10727;43.600;1.444;2023-08-24T07:31:14;11.15;;;5.88;;
21138;SDS011;10727;43.600;1.444;2023-08-24T07:34:19;9.40;;;4.95;;
21138;SDS011;10727;43.600;1.444;2023-08-24T07:37:25;20.05;;;15.60;;
21138;SDS011;10727;43.600;1.444;2023-08-24T07:40:30;14.38;;;9.75;;
21138;SDS011;10727;43.600;1.444;2023-08-24T07:43:36;11.05;;;6.22;;
21138;SDS011;10727;43.600;1.444;2023-08-24T07:46:41;8.85;;;5.28;;
21138;SDS011;10727;43.600;1.444;2023-08-24T07:49:46;11.38;;;5.43;;
21138;SDS011;10727;43.600;1.444;2023-08-24T07:52:52;9.07;;;4.65;;
21138;SDS011;10727;43.600;1.444;2023-08-24T07:55:57;11.18;;;4.90;;
21138;SDS011;10727;43.600;1.444;2023-08-24T07:59:03;6.63;;;4.50;;
21138;SDS011;10727;43.600;1.444;2023-08-24T08:02:09;6.70;;;4.50;;
21138;SDS011;10727;43.600;1.444;2023-08-24T08:05:14;7.63;;;4.45;;
21138;SDS011;10727;43.600;1.444;2023-08-24T08:08:19;8.30;;;4.70;;
21138;SDS011;10727;43.600;1.444;2023-08-24T08:11:24;8.82;;;4.72;;
21138;SDS011;10727;43.600;1.444;2023-08-24T08:14:30;10.25;;;4.00;;
21138;SDS011;10727;43.600;1.444;2023-08-24T08:17:36;8.68;;;4.18;;
21138;SDS011;10727;43.600;1.444;2023-08-24T08:20:41;10.43;;;4.30;;
21138;SDS011;10727;43.600;1.444;2023-08-24T08:23:46;9.50;;;4.45;;
21138;SDS011;10727;43.600;1.444;2023-08-24T08:26:51;6.65;;;4.20;;
21138;SDS011;10727;43.600;1.444;2023-08-24T08:29:58;7.00;;;3.92;;
21138;SDS011;10727;43.600;1.444;2023-08-24T08:33:03;9.25;;;4.38;;
21138;SDS011;10727;43.600;1.444;2023-08-24T08:36:08;10.07;;;4.28;;
21138;SDS011;10727;43.600;1.444;2023-08-24T08:39:14;11.52;;;3.85;;
21138;SDS011;10727;43.600;1.444;2023-08-24T08:42:20;9.02;;;4.60;;
21138;SDS011;10727;43.600;1.444;2023-08-24T08:45:27;8.90;;;3.92;;
21138;SDS011;10727;43.600;1.444;2023-08-24T08:48:32;12.63;;;4.32;;
21138;SDS011;10727;43.600;1.444;2023-08-24T08:51:38;12.48;;;4.65;;
21138;SDS011;10727;43.600;1.444;2023-08-24T08:54:44;6.13;;;4.10;;
21138;SDS011;10727;43.600;1.444;2023-08-24T08:57:49;9.45;;;3.97;;
21138;SDS011;10727;43.600;1.444;2023-08-24T09:00:57;7.57;;;3.90;;
21138;SDS011;10727;43.600;1.444;2023-08-24T09:04:06;10.27;;;4.43;;
21138;SDS011;10727;43.600;1.444;2023-08-24T09:07:12;9.30;;;4.13;;
21138;SDS011;10727;43.600;1.444;2023-08-24T09:10:18;6.88;;;4.50;;
21138;SDS011;10727;43.600;1.444;2023-08-24T09:13:22;9.85;;;4.22;;
21138;SDS011;10727;43.600;1.444;2023-08-24T09:16:30;8.95;;;4.78;;
21138;SDS011;10727;43.600;1.444;2023-08-24T09:19:35;9.05;;;4.47;;
21138;SDS011;10727;43.600;1.444;2023-08-24T09:22:42;9.73;;;4.10;;
21138;SDS011;10727;43.600;1.444;2023-08-24T09:25:47;12.80;;;4.50;;
21138;SDS011;10727;43.600;1.444;2023-08-24T09:28:52;9.60;;;4.80;;
21138;SDS011;10727;43.600;1.444;2023-08-24T09:31:58;13.23;;;4.60;;
21138;SDS011;10727;43.600;1.444;2023-08-24T09:35:04;11.65;;;4.40;;
21138;SDS011;10727;43.600;1.444;2023-08-24T09:38:16;8.52;;;4.30;;
21138;SDS011;10727;43.600;1.444;2023-08-24T09:41:22;9.93;;;4.35;;
21138;SDS011;10727;43.600;1.444;2023-08-24T09:44:27;9.57;;;4.82;;
21138;SDS011;10727;43.600;1.444;2023-08-24T09:47:34;9.60;;;4.00;;
21138;SDS011;10727;43.600;1.444;2023-08-24T09:50:39;7.63;;;3.92;;
21138;SDS011;10727;43.600;1.444;2023-08-24T09:53:44;9.10;;;4.50;;
21138;SDS011;10727;43.600;1.444;2023-08-24T09:56:50;7.68;;;4.25;;
21138;SDS011;10727;43.600;1.444;2023-08-24T09:59:55;8.90;;;4.68;;
21138;SDS011;10727;43.600;1.444;2023-08-24T10:03:02;8.60;;;5.10;;
21138;SDS011;10727;43.600;1.444;2023-08-24T10:06:08;10.27;;;4.45;;
21138;SDS011;10727;43.600;1.444;2023-08-24T10:09:18;11.73;;;4.70;;
21138;SDS011;10727;43.600;1.444;2023-08-24T10:12:24;11.05;;;5.00;;
21138;SDS011;10727;43.600;1.444;2023-08-24T10:15:31;14.45;;;4.55;;
21138;SDS011;10727;43.600;1.444;2023-08-24T10:18:38;10.30;;;5.10;;
21138;SDS011;10727;43.600;1.444;2023-08-24T10:21:44;10.13;;;4.22;;
21138;SDS011;10727;43.600;1.444;2023-08-24T10:24:50;8.82;;;4.45;;
21138;SDS011;10727;43.600;1.444;2023-08-24T10:27:56;10.52;;;4.28;;
21138;SDS011;10727;43.600;1.444;2023-08-24T10:31:02;9.65;;;4.30;;
21138;SDS011;10727;43.600;1.444;2023-08-24T10:34:09;7.40;;;4.60;;
21138;SDS011;10727;43.600;1.444;2023-08-24T10:37:14;6.15;;;4.60;;
21138;SDS011;10727;43.600;1.444;2023-08-24T10:40:30;10.63;;;4.57;;
21138;SDS011;10727;43.600;1.444;2023-08-24T10:43:35;8.23;;;4.85;;
21138;SDS011;10727;43.600;1.444;2023-08-24T10:46:40;9.60;;;4.82;;
21138;SDS011;10727;43.600;1.444;2023-08-24T10:49:57;8.15;;;4.97;;
21138;SDS011;10727;43.600;1.444;2023-08-24T10:53:02;11.10;;;4.80;;
21138;SDS011;10727;43.600;1.444;2023-08-24T10:56:10;6.25;;;4.22;;
21138;SDS011;10727;43.600;1.444;2023-08-24T10:59:15;8.05;;;4.60;;
21138;SDS011;10727;43.600;1.444;2023-08-24T11:02:20;10.05;;;4.55;;
21138;SDS011;10727;43.600;1.444;2023-08-24T11:05:27;9.55;;;4.53;;
21138;SDS011;10727;43.600;1.444;2023-08-24T11:08:46;10.10;;;4.30;;
21138;SDS011;10727;43.600;1.444;2023-08-24T11:11:58;10.30;;;4.45;;
21138;SDS011;10727;43.600;1.444;2023-08-24T11:15:03;13.13;;;5.43;;
21138;SDS011;10727;43.600;1.444;2023-08-24T11:18:19;10.30;;;4.63;;
21138;SDS011;10727;43.600;1.444;2023-08-24T11:21:24;10.60;;;4.95;;
21138;SDS011;10727;43.600;1.444;2023-08-24T11:24:29;10.13;;;5.05;;
21138;SDS011;10727;43.600;1.444;2023-08-24T11:27:36;10.75;;;5.00;;
21138;SDS011;10727;43.600;1.444;2023-08-24T11:30:42;9.68;;;4.60;;
21138;SDS011;10727;43.600;1.444;2023-08-24T11:33:53;9.75;;;4.68;;
21138;SDS011;10727;43.600;1.444;2023-08-24T11:36:58;11.00;;;4.75;;
21138;SDS011;10727;43.600;1.444;2023-08-24T11:40:04;10.57;;;5.10;;
21138;SDS011;10727;43.600;1.444;2023-08-24T11:43:18;10.18;;;5.40;;
21138;SDS011;10727;43.600;1.444;2023-08-24T11:46:25;9.82;;;5.00;;
21138;SDS011;10727;43.600;1.444;2023-08-24T11:49:31;8.40;;;4.80;;
21138;SDS011;10727;43.600;1.444;2023-08-24T11:52:38;10.23;;;4.68;;
21138;SDS011;10727;43.600;1.444;2023-08-24T11:55:44;10.23;;;4.78;;
21138;SDS011;10727;43.600;1.444;2023-08-24T11:58:49;10.98;;;5.25;;
21138;SDS011;10727;43.600;1.444;2023-08-24T12:01:55;22.38;;;15.90;;
21138;SDS011;10727;43.600;1.444;2023-08-24T12:05:01;29.17;;;21.23;;
21138;SDS011;10727;43.600;1.444;2023-08-24T12:08:11;12.52;;;9.35;;
21138;SDS011;10727;43.600;1.444;2023-08-24T12:11:17;16.23;;;11.10;;
21138;SDS011;10727;43.600;1.444;2023-08-24T12:14:22;9.15;;;5.50;;
21138;SDS011;10727;43.600;1.444;2023-08-24T12:17:28;8.77;;;5.53;;
21138;SDS011;10727;43.600;1.444;2023-08-24T12:20:34;9.50;;;5.00;;
21138;SDS011;10727;43.600;1.444;2023-08-24T12:23:39;8.48;;;4.03;;
21138;SDS011;10727;43.600;1.444;2023-08-24T12:26:44;8.43;;;4.38;;
21138;SDS011;10727;43.600;1.444;2023-08-24T12:30:01;7.90;;;4.63;;
21138;SDS011;10727;43.600;1.444;2023-08-24T12:33:08;8.65;;;4.55;;
21138;SDS011;10727;43.600;1.444;2023-08-24T12:36:14;6.80;;;4.18;;
21138;SDS011;10727;43.600;1.444;2023-08-24T12:39:19;16.08;;;12.63;;
21138;SDS011;10727;43.600;1.444;2023-08-24T12:42:24;16.73;;;11.75;;
21138;SDS011;10727;43.600;1.444;2023-08-24T12:45:31;12.95;;;10.55;;
21138;SDS011;10727;43.600;1.444;2023-08-24T12:48:35;13.13;;;7.97;;
21138;SDS011;10727;43.600;1.444;2023-08-24T12:51:42;9.80;;;4.93;;
21138;SDS011;10727;43.600;1.444;2023-08-24T12:54:47;7.55;;;4.70;;
21138;SDS011;10727;43.600;1.444;2023-08-24T12:57:52;6.30;;;4.43;;
21138;SDS011;10727;43.600;1.444;2023-08-24T13:00:58;10.00;;;4.35;;
21138;SDS011;10727;43.600;1.444;2023-08-24T13:04:03;8.00;;;4.10;;
21138;SDS011;10727;43.600;1.444;2023-08-24T13:07:09;10.38;;;5.18;;
21138;SDS011;10727;43.600;1.444;2023-08-24T13:10:14;8.13;;;4.40;;
21138;SDS011;10727;43.600;1.444;2023-08-24T13:13:20;10.15;;;4.18;;
21138;SDS011;10727;43.600;1.444;2023-08-24T13:16:25;9.38;;;4.38;;
21138;SDS011;10727;43.600;1.444;2023-08-24T13:19:31;10.02;;;4.45;;
21138;SDS011;10727;43.600;1.444;2023-08-24T13:22:37;14.50;;;12.60;;
21138;SDS011;10727;43.600;1.444;2023-08-24T13:25:42;12.82;;;8.68;;
21138;SDS011;10727;43.600;1.444;2023-08-24T13:28:48;13.80;;;5.97;;
21138;SDS011;10727;43.600;1.444;2023-08-24T13:31:53;6.30;;;4.65;;
21138;SDS011;10727;43.600;1.444;2023-08-24T13:34:58;10.02;;;4.38;;
21138;SDS011;10727;43.600;1.444;2023-08-24T13:38:05;9.57;;;4.90;;
21138;SDS011;10727;43.600;1.444;2023-08-24T13:41:10;8.88;;;4.05;;
21138;SDS011;10727;43.600;1.444;2023-08-24T13:44:15;6.72;;;3.92;;
21138;SDS011;10727;43.600;1.444;2023-08-24T13:47:20;7.13;;;4.03;;
21138;SDS011;10727;43.600;1.444;2023-08-24T13:50:25;8.50;;;3.78;;
21138;SDS011;10727;43.600;1.444;2023-08-24T13:53:32;13.93;;;5.50;;
21138;SDS011;10727;43.600;1.444;2023-08-24T13:56:37;8.63;;;3.97;;
21138;SDS011;10727;43.600;1.444;2023-08-24T13:59:42;6.10;;;4.10;;
21138;SDS011;10727;43.600;1.444;2023-08-24T14:02:48;8.90;;;4.40;;
21138;SDS011;10727;43.600;1.444;2023-08-24T14:05:54;6.78;;;4.15;;
21138;SDS011;10727;43.600;1.444;2023-08-24T14:09:01;13.63;;;5.22;;
21138;SDS011;10727;43.600;1.444;2023-08-24T14:12:07;7.85;;;4.15;;
21138;SDS011;10727;43.600;1.444;2023-08-24T14:15:12;9.77;;;4.18;;
21138;SDS011;10727;43.600;1.444;2023-08-24T14:18:18;8.95;;;4.53;;
21138;SDS011;10727;43.600;1.444;2023-08-24T14:21:23;11.18;;;4.63;;
21138;SDS011;10727;43.600;1.444;2023-08-24T14:24:29;7.93;;;4.40;;
21138;SDS011;10727;43.600;1.444;2023-08-24T14:27:38;8.77;;;4.13;;
21138;SDS011;10727;43.600;1.444;2023-08-24T14:30:44;8.73;;;3.63;;
21138;SDS011;10727;43.600;1.444;2023-08-24T14:33:49;6.88;;;3.85;;
21138;SDS011;10727;43.600;1.444;2023-08-24T14:36:54;8.23;;;4.18;;
21138;SDS011;10727;43.600;1.444;2023-08-24T14:40:01;8.00;;;4.25;;
21138;SDS011;10727;43.600;1.444;2023-08-24T14:43:07;11.07;;;4.18;;
21138;SDS011;10727;43.600;1.444;2023-08-24T14:46:12;7.70;;;3.80;;
21138;SDS011;10727;43.600;1.444;2023-08-24T14:49:17;10.20;;;4.00;;
21138;SDS011;10727;43.600;1.444;2023-08-24T14:52:22;10.82;;;5.10;;
21138;SDS011;10727;43.600;1.444;2023-08-24T14:55:29;9.88;;;5.05;;
21138;SDS011;10727;43.600;1.444;2023-08-24T14:58:33;15.95;;;6.93;;
21138;SDS011;10727;43.600;1.444;2023-08-24T15:01:38;16.42;;;11.70;;
21138;SDS011;10727;43.600;1.444;2023-08-24T15:04:43;19.15;;;14.45;;
21138;SDS011;10727;43.600;1.444;2023-08-24T15:07:48;14.45;;;7.55;;
21138;SDS011;10727;43.600;1.444;2023-08-24T15:10:55;18.55;;;10.65;;
21138;SDS011;10727;43.600;1.444;2023-08-24T15:14:01;7.93;;;4.20;;
21138;SDS011;10727;43.600;1.444;2023-08-24T15:17:06;9.23;;;4.32;;
21138;SDS011;10727;43.600;1.444;2023-08-24T15:20:20;10.15;;;4.47;;
21138;SDS011;10727;43.600;1.444;2023-08-24T15:23:25;9.75;;;3.80;;
21138;SDS011;10727;43.600;1.444;2023-08-24T15:26:32;11.80;;;4.65;;
21138;SDS011;10727;43.600;1.444;2023-08-24T15:29:37;9.85;;;4.20;;
21138;SDS011;10727;43.600;1.444;2023-08-24T15:32:42;7.30;;;4.40;;
21138;SDS011;10727;43.600;1.444;2023-08-24T15:35:48;9.20;;;3.90;;
21138;SDS011;10727;43.600;1.444;2023-08-24T15:38:53;9.77;;;4.30;;
21138;SDS011;10727;43.600;1.444;2023-08-24T15:41:59;10.98;;;3.70;;
21138;SDS011;10727;43.600;1.444;2023-08-24T15:45:05;10.10;;;4.07;;
21138;SDS011;10727;43.600;1.444;2023-08-24T15:48:10;9.63;;;3.80;;
21138;SDS011;10727;43.600;1.444;2023-08-24T15:51:18;6.43;;;3.35;;
21138;SDS011;10727;43.600;1.444;2023-08-24T15:54:23;8.30;;;4.07;;
21138;SDS011;10727;43.600;1.444;2023-08-24T15:57:33;10.50;;;3.35;;
21138;SDS011;10727;43.600;1.444;2023-08-24T16:00:41;9.35;;;3.53;;
21138;SDS011;10727;43.600;1.444;2023-08-24T16:03:46;10.57;;;3.55;;
21138;SDS011;10727;43.600;1.444;2023-08-24T16:06:51;9.40;;;3.67;;
21138;SDS011;10727;43.600;1.444;2023-08-24T16:09:57;6.03;;;3.45;;
21138;SDS011;10727;43.600;1.444;2023-08-24T16:13:03;6.95;;;3.55;;
21138;SDS011;10727;43.600;1.444;2023-08-24T16:16:08;8.52;;;3.20;;
21138;SDS011;10727;43.600;1.444;2023-08-24T16:19:13;5.78;;;3.40;;
21138;SDS011;10727;43.600;1.444;2023-08-24T16:22:22;12.23;;;4.03;;
21138;SDS011;10727;43.600;1.444;2023-08-24T16:25:27;9.32;;;3.45;;
21138;SDS011;10727;43.600;1.444;2023-08-24T16:28:34;7.95;;;3.60;;
21138;SDS011;10727;43.600;1.444;2023-08-24T16:31:39;6.57;;;3.47;;
21138;SDS011;10727;43.600;1.444;2023-08-24T16:34:44;7.25;;;3.60;;
21138;SDS011;10727;43.600;1.444;2023-08-24T16:37:49;7.43;;;3.78;;
21138;SDS011;10727;43.600;1.444;2023-08-24T16:40:54;5.93;;;3.28;;
21138;SDS011;10727;43.600;1.444;2023-08-24T16:44:00;8.52;;;3.70;;
21138;SDS011;10727;43.600;1.444;2023-08-24T16:47:05;8.60;;;3.53;;
21138;SDS011;10727;43.600;1.444;2023-08-24T16:50:10;6.60;;;3.38;;
21138;SDS011;10727;43.600;1.444;2023-08-24T16:53:19;7.20;;;3.85;;
21138;SDS011;10727;43.600;1.444;2023-08-24T16:56:27;8.13;;;6.45;;
21138;SDS011;10727;43.600;1.444;2023-08-24T16:59:33;8.27;;;4.88;;
21138;SDS011;10727;43.600;1.444;2023-08-24T17:02:42;4.45;;;3.80;;
21138;SDS011;10727;43.600;1.444;2023-08-24T17:05:47;6.63;;;3.90;;
21138;SDS011;10727;43.600;1.444;2023-08-24T17:08:54;5.50;;;3.78;;
21138;SDS011;10727;43.600;1.444;2023-08-24T17:11:59;5.53;;;4.40;;
21138;SDS011;10727;43.600;1.444;2023-08-24T17:15:08;6.22;;;3.78;;
21138;SDS011;10727;43.600;1.444;2023-08-24T17:18:14;11.40;;;3.97;;
21138;SDS011;10727;43.600;1.444;2023-08-24T17:21:22;6.68;;;3.70;;
21138;SDS011;10727;43.600;1.444;2023-08-24T17:24:30;8.75;;;3.55;;
21138;SDS011;10727;43.600;1.444;2023-08-24T17:27:35;7.65;;;3.45;;
21138;SDS011;10727;43.600;1.444;2023-08-24T17:30:45;9.82;;;3.80;;
21138;SDS011;10727;43.600;1.444;2023-08-24T17:33:53;8.55;;;3.58;;
21138;SDS011;10727;43.600;1.444;2023-08-24T17:36:59;6.35;;;3.55;;
21138;SDS011;10727;43.600;1.444;2023-08-24T17:40:05;7.10;;;3.15;;
21138;SDS011;10727;43.600;1.444;2023-08-24T17:43:13;4.82;;;3.58;;
21138;SDS011;10727;43.600;1.444;2023-08-24T17:46:22;7.35;;;3.47;;
21138;SDS011;10727;43.600;1.444;2023-08-24T17:49:27;7.00;;;3.80;;
21138;SDS011;10727;43.600;1.444;2023-08-24T17:52:36;7.65;;;3.67;;
21138;SDS011;10727;43.600;1.444;2023-08-24T17:55:41;5.40;;;3.33;;
21138;SDS011;10727;43.600;1.444;2023-08-24T17:58:46;5.80;;;3.47;;
21138;SDS011;10727;43.600;1.444;2023-08-24T18:01:53;5.60;;;3.28;;
21138;SDS011;10727;43.600;1.444;2023-08-24T18:04:58;5.03;;;2.95;;
21138;SDS011;10727;43.600;1.444;2023-08-24T18:08:03;6.90;;;4.05;;
21138;SDS011;10727;43.600;1.444;2023-08-24T18:11:08;5.25;;;4.10;;
21138;SDS011;10727;43.600;1.444;2023-08-24T18:14:13;4.75;;;3.20;;
21138;SDS011;10727;43.600;1.444;2023-08-24T18:17:26;3.92;;;3.22;;
21138;SDS011;10727;43.600;1.444;2023-08-24T18:20:31;6.03;;;3.10;;
21138;SDS011;10727;43.600;1.444;2023-08-24T18:23:37;16.52;;;9.90;;
21138;SDS011;10727;43.600;1.444;2023-08-24T18:26:42;7.38;;;4.75;;
21138;SDS011;10727;43.600;1.444;2023-08-24T18:29:47;6.82;;;3.83;;
21138;SDS011;10727;43.600;1.444;2023-08-24T18:32:53;7.22;;;3.75;;
21138;SDS011;10727;43.600;1.444;2023-08-24T18:35:59;5.10;;;3.38;;
21138;SDS011;10727;43.600;1.444;2023-08-24T18:39:04;6.05;;;3.15;;